Portada
METAR-TAF:

METAR-TAF

Aeropuertos :

La Gomera, España

Aeropuerto de La Gomera

latitud: 28-01-47N, longitud: 017-12-53W, altitud: 218 m

Observación

El informe se hizo hace 28 minutos, a las 08:30 UTC
Viento 4 kt con dirección variable
Temperatura 20°C
Humedad 60%
Presión 1019 hPa
Visibilidad 10 km o más
Nubes dispersas a una altura de 3000 ft

METAR: GCGM 170830Z VRB04KT 9999 SCT030 20/12 Q1019 RMK R09/VRB04KT ARP/06005KT 350V120

Hora: 09:58 (08:58 UTC)

Pronóstico

El informe se hizo hace 58 minutos, a las 08:00 UTC
Pronóstico válido del 17 a las 09 UTC al 18 a las 09 UTC
Viento 6 kt del oeste-suroeste
Visibilidad 10 km o más
Escasas nubes a una altura de 3000 ft

TAF: GCGM 170800Z 1709/1809 24006KT 9999 FEW030 TX23/1714Z TN18/1806Z

Observaciones y pronósticos meteorológicos de más de 4000 aeropuertos (mensajes METAR y TAF).

Los puntos amarillos y rojos representan las estaciones disponibles.

Ponga el ratón en el punto deseado para ver el nombre de la estación.

Haga clic para ver las observaciones y los pronósticos meteorológicos.

Para cambiar el mapa : haga clic en los botones verdes con una cruz de color negro para hacer un zoom, en el botón verde con un guión para alejar o en las flechas verdes para mapas adyacentes.


METAR-TAF: